createdAt,value
2023-05-31T00:01:01.574Z,102594.63
2023-05-31T00:03:28.548Z,102592.94
2023-05-31T00:05:55.035Z,102594.75
2023-05-31T00:08:21.575Z,102588.47
2023-05-31T00:10:48.033Z,102589.72
2023-05-31T00:13:14.434Z,102590.00
2023-05-31T00:15:41.762Z,102593.72
2023-05-31T00:18:08.248Z,102590.38
2023-05-31T00:20:34.763Z,102588.84
2023-05-31T00:23:01.405Z,102580.31
2023-05-31T00:25:27.790Z,102592.13
2023-05-31T00:27:56.118Z,102587.25
2023-05-31T00:30:22.613Z,102579.94
2023-05-31T00:32:49.125Z,102581.16
2023-05-31T00:35:15.768Z,102579.75
2023-05-31T00:37:42.203Z,102579.16
2023-05-31T00:40:08.960Z,102587.06
2023-05-31T00:42:35.517Z,102592.72
2023-05-31T00:45:02.406Z,102586.19
2023-05-31T00:47:29.767Z,102578.81
2023-05-31T00:49:56.983Z,102577.75
2023-05-31T00:52:23.982Z,102588.31
2023-05-31T00:54:51.088Z,102588.41
2023-05-31T00:57:17.807Z,102586.88
2023-05-31T00:59:44.440Z,102594.81
2023-05-31T01:02:12.480Z,102586.31
2023-05-31T01:04:39.491Z,102590.59
2023-05-31T01:07:06.385Z,102594.94
2023-05-31T01:09:33.247Z,102591.09
2023-05-31T01:12:04.982Z,102587.75
2023-05-31T01:14:51.118Z,102584.88
2023-05-31T01:17:39.193Z,102589.56
2023-05-31T01:20:10.273Z,102593.06
2023-05-31T01:23:01.640Z,102597.91
2023-05-31T01:25:42.819Z,102595.78
2023-05-31T01:28:11.512Z,102598.19
2023-05-31T01:30:38.774Z,102603.94
2023-05-31T01:33:13.698Z,102601.53
2023-05-31T01:35:40.185Z,102588.22
2023-05-31T01:38:06.649Z,102597.13
2023-05-31T01:40:34.737Z,102584.88
2023-05-31T01:43:01.245Z,102586.22
2023-05-31T01:45:28.516Z,102588.13
2023-05-31T01:48:03.115Z,102588.72
2023-05-31T01:50:30.177Z,102592.56
2023-05-31T01:52:56.784Z,102595.44
2023-05-31T01:55:23.339Z,102589.22
2023-05-31T01:57:51.936Z,102590.44
2023-05-31T02:00:18.674Z,102584.19
2023-05-31T02:02:46.010Z,102584.47
2023-05-31T02:05:14.110Z,102589.72
2023-05-31T02:07:41.890Z,102582.19
2023-05-31T02:10:09.547Z,102585.31
2023-05-31T02:12:36.044Z,102584.00
2023-05-31T02:15:02.647Z,102578.72
2023-05-31T02:17:30.085Z,102584.13
2023-05-31T02:19:56.685Z,102575.25
2023-05-31T02:22:23.282Z,102578.97
2023-05-31T02:24:49.750Z,102573.94
2023-05-31T02:27:16.343Z,102580.06
2023-05-31T02:29:45.514Z,102587.28
2023-05-31T02:32:11.966Z,102585.34
2023-05-31T02:34:38.441Z,102588.09
2023-05-31T02:37:05.225Z,102593.63
2023-05-31T02:39:31.736Z,102584.38
2023-05-31T02:41:58.177Z,102580.19
2023-05-31T02:44:24.571Z,102583.53
2023-05-31T02:46:51.095Z,102588.22
2023-05-31T02:49:17.549Z,102577.81
2023-05-31T02:51:43.985Z,102578.03
2023-05-31T02:54:10.478Z,102578.03
2023-05-31T02:56:36.880Z,102575.50
2023-05-31T02:59:03.825Z,102575.75
2023-05-31T03:01:30.350Z,102570.00
2023-05-31T03:03:56.824Z,102564.13
2023-05-31T03:06:24.403Z,102573.00
2023-05-31T03:08:51.012Z,102569.28
2023-05-31T03:11:17.610Z,102574.66
2023-05-31T03:13:44.129Z,102575.88
2023-05-31T03:16:10.643Z,102581.03
2023-05-31T03:18:38.193Z,102580.31
2023-05-31T03:21:06.416Z,102568.84
2023-05-31T03:23:32.888Z,102565.44
2023-05-31T03:25:59.385Z,102564.38
2023-05-31T03:28:25.909Z,102563.78
2023-05-31T03:30:52.401Z,102560.31
2023-05-31T03:33:18.999Z,102574.44
2023-05-31T03:35:45.769Z,102563.19
2023-05-31T03:38:12.241Z,102564.16
2023-05-31T03:40:38.668Z,102570.75
2023-05-31T03:43:05.789Z,102567.13
2023-05-31T03:45:32.326Z,102576.72
2023-05-31T03:47:59.053Z,102569.31
2023-05-31T03:50:25.682Z,102565.69
2023-05-31T03:52:52.251Z,102571.22
2023-05-31T03:55:18.727Z,102565.81
2023-05-31T03:57:45.168Z,102580.19
2023-05-31T04:00:15.115Z,102581.16
2023-05-31T04:02:52.173Z,102573.97
2023-05-31T04:05:28.788Z,102581.72
2023-05-31T04:07:55.270Z,102570.63
2023-05-31T04:10:21.699Z,102566.66
2023-05-31T04:12:48.203Z,102579.72
2023-05-31T04:15:14.741Z,102577.69
2023-05-31T04:17:41.156Z,102579.59
2023-05-31T04:20:08.829Z,102579.59
2023-05-31T04:22:36.265Z,102581.50
2023-05-31T04:25:03.506Z,102582.34
2023-05-31T04:27:33.585Z,102587.28
2023-05-31T04:30:01.987Z,102586.41
2023-05-31T04:32:31.577Z,102584.88
2023-05-31T04:34:59.093Z,102585.69
2023-05-31T04:37:27.643Z,102582.13
2023-05-31T04:39:54.137Z,102581.13
2023-05-31T04:42:20.705Z,102576.72
2023-05-31T04:44:49.293Z,102585.22
2023-05-31T04:47:16.726Z,102578.88
2023-05-31T04:49:54.141Z,102578.16
2023-05-31T04:52:23.220Z,102581.38
2023-05-31T04:54:49.652Z,102576.97
2023-05-31T04:57:16.886Z,102575.06
2023-05-31T04:59:43.456Z,102578.28
2023-05-31T05:02:09.926Z,102578.50
2023-05-31T05:04:36.343Z,102576.47
2023-05-31T05:07:02.783Z,102579.22
2023-05-31T05:09:29.332Z,102587.75
2023-05-31T05:11:56.962Z,102586.03
2023-05-31T05:14:23.647Z,102583.19
2023-05-31T05:16:50.180Z,102580.19
2023-05-31T05:19:16.673Z,102596.50
2023-05-31T05:21:43.139Z,102584.50
2023-05-31T05:24:09.789Z,102584.84
2023-05-31T05:26:38.052Z,102592.41
2023-05-31T05:29:05.094Z,102593.03
2023-05-31T05:31:31.692Z,102593.38
2023-05-31T05:33:58.191Z,102596.63
2023-05-31T05:36:24.632Z,102581.63
2023-05-31T05:38:51.132Z,102588.00
2023-05-31T05:41:17.576Z,102592.06
2023-05-31T05:43:44.366Z,102589.91
2023-05-31T05:46:10.942Z,102593.38
2023-05-31T05:48:37.478Z,102588.56
2023-05-31T05:51:04.744Z,102591.06
2023-05-31T05:53:31.626Z,102597.66
2023-05-31T05:55:58.045Z,102594.78
2023-05-31T05:58:24.486Z,102588.41
2023-05-31T06:00:51.206Z,102591.78
2023-05-31T06:03:17.714Z,102585.66
2023-05-31T06:05:44.542Z,102585.88
2023-05-31T06:08:11.660Z,102596.91
2023-05-31T06:10:39.020Z,102593.06
2023-05-31T06:13:05.945Z,102591.25
2023-05-31T06:15:32.425Z,102589.09
2023-05-31T06:17:59.039Z,102588.00
2023-05-31T06:20:27.323Z,102593.84
2023-05-31T06:22:53.931Z,102593.22
2023-05-31T06:25:21.645Z,102587.69
2023-05-31T06:27:48.074Z,102594.13
2023-05-31T06:30:14.864Z,102588.88
2023-05-31T06:32:41.341Z,102588.81
2023-05-31T06:35:08.220Z,102587.44
2023-05-31T06:37:35.204Z,102589.13
2023-05-31T06:40:01.687Z,102592.25
2023-05-31T06:42:28.175Z,102590.31
2023-05-31T06:44:57.360Z,102588.09
2023-05-31T06:47:24.536Z,102591.91
2023-05-31T06:49:51.088Z,102591.53
2023-05-31T06:52:17.580Z,102590.31
2023-05-31T06:54:44.371Z,102604.69
2023-05-31T06:57:10.815Z,102593.59
2023-05-31T06:59:37.339Z,102597.78
2023-05-31T07:02:03.767Z,102595.19
2023-05-31T07:04:30.479Z,102591.72
2023-05-31T07:06:56.918Z,102590.34
2023-05-31T07:09:23.425Z,102591.88
2023-05-31T07:11:49.887Z,102597.50
2023-05-31T07:14:16.399Z,102598.78
2023-05-31T07:16:42.953Z,102587.91
2023-05-31T07:19:09.412Z,102584.59
2023-05-31T07:21:35.876Z,102588.53
2023-05-31T07:24:02.279Z,102589.81
2023-05-31T07:26:28.785Z,102589.53
2023-05-31T07:28:55.531Z,102588.59
2023-05-31T07:31:23.048Z,102579.97
2023-05-31T07:33:49.528Z,102583.88
2023-05-31T07:36:16.706Z,102594.06
2023-05-31T07:38:43.167Z,102583.09
2023-05-31T07:41:09.581Z,102588.53
2023-05-31T07:43:37.835Z,102582.56
2023-05-31T07:46:04.278Z,102580.75
2023-05-31T07:48:33.347Z,102569.88
2023-05-31T07:51:00.161Z,102572.53
2023-05-31T07:53:26.602Z,102567.78
2023-05-31T07:55:53.044Z,102564.84
2023-05-31T07:58:20.668Z,102566.63
2023-05-31T08:00:47.575Z,102577.50
2023-05-31T08:03:15.023Z,102567.84
2023-05-31T08:05:41.523Z,102564.22
2023-05-31T08:08:08.011Z,102561.69
2023-05-31T08:10:34.442Z,102561.00
2023-05-31T08:13:01.063Z,102558.84
2023-05-31T08:15:27.589Z,102556.75
2023-05-31T08:17:53.993Z,102560.03
2023-05-31T08:20:21.718Z,102551.63
2023-05-31T08:22:48.290Z,102545.69
2023-05-31T08:25:18.074Z,102553.56
2023-05-31T08:27:44.488Z,102553.72
2023-05-31T08:30:11.699Z,102547.78
2023-05-31T08:32:39.074Z,102545.06
2023-05-31T08:35:07.449Z,102559.28
2023-05-31T08:37:34.417Z,102552.06
2023-05-31T08:40:00.981Z,102545.50
2023-05-31T08:42:33.488Z,102545.72
2023-05-31T08:45:01.567Z,102543.66
2023-05-31T08:48:01.347Z,102535.66
2023-05-31T08:50:29.693Z,102532.28
2023-05-31T08:52:56.825Z,102524.50
2023-05-31T08:55:24.929Z,102525.03
2023-05-31T08:57:52.787Z,102526.56
2023-05-31T09:00:20.490Z,102530.63
2023-05-31T09:02:48.258Z,102526.78
2023-05-31T09:05:15.316Z,102524.13
2023-05-31T09:07:41.832Z,102510.78
2023-05-31T09:10:10.378Z,102522.44
2023-05-31T09:12:37.768Z,102524.69
2023-05-31T09:15:06.458Z,102522.41
2023-05-31T09:17:33.478Z,102521.88
2023-05-31T09:20:01.234Z,102512.31
2023-05-31T09:22:28.107Z,102522.13
2023-05-31T09:24:59.356Z,102513.94
2023-05-31T09:27:27.853Z,102509.44
2023-05-31T09:29:55.106Z,102506.59
2023-05-31T09:32:22.059Z,102508.13
2023-05-31T09:34:48.704Z,102504.19
2023-05-31T09:37:25.631Z,102510.63
2023-05-31T09:39:57.058Z,102504.03
2023-05-31T09:42:26.648Z,102495.16
2023-05-31T09:44:53.076Z,102495.75
2023-05-31T09:47:28.725Z,102491.59
2023-05-31T09:49:55.790Z,102491.13
2023-05-31T09:52:31.893Z,102487.16
2023-05-31T09:54:59.085Z,102489.19
2023-05-31T09:57:41.867Z,102488.75
2023-05-31T10:00:16.625Z,102497.44
2023-05-31T10:02:53.818Z,102489.44
2023-05-31T10:05:21.371Z,102492.03
2023-05-31T10:07:50.151Z,102491.59
2023-05-31T10:10:21.168Z,102488.25
2023-05-31T10:12:59.507Z,102487.78
2023-05-31T10:15:27.916Z,102480.69
2023-05-31T10:18:04.063Z,102469.41
2023-05-31T10:20:38.581Z,102468.91
2023-05-31T10:23:10.548Z,102468.03
2023-05-31T10:25:45.818Z,102465.16
2023-05-31T10:28:16.677Z,102463.47
2023-05-31T10:30:46.902Z,102461.66
2023-05-31T10:33:15.701Z,102461.34
2023-05-31T10:35:42.354Z,102457.75
2023-05-31T10:38:09.770Z,102452.97
2023-05-31T10:40:50.616Z,102455.81
2023-05-31T10:43:30.451Z,102449.53
2023-05-31T10:46:03.711Z,102450.41
2023-05-31T10:48:46.632Z,102439.22
2023-05-31T10:51:13.605Z,102443.06
2023-05-31T10:53:44.449Z,102436.97
2023-05-31T10:56:14.592Z,102433.06
2023-05-31T10:58:42.541Z,102434.03
2023-05-31T11:01:14.877Z,102434.19
2023-05-31T11:03:46.158Z,102426.91
2023-05-31T11:06:14.578Z,102434.59
2023-05-31T11:09:10.938Z,102418.88
2023-05-31T11:11:37.874Z,102420.22
2023-05-31T11:14:17.226Z,102421.81
2023-05-31T11:17:01.298Z,102413.34
2023-05-31T11:19:28.937Z,102415.69
2023-05-31T11:21:58.180Z,102416.66
2023-05-31T11:24:34.929Z,102409.34
2023-05-31T11:27:02.909Z,102405.13
2023-05-31T11:29:52.006Z,102409.63
2023-05-31T11:32:23.629Z,102402.66
2023-05-31T11:34:50.072Z,102403.13
2023-05-31T11:37:16.895Z,102397.16
2023-05-31T11:39:47.276Z,102398.22
2023-05-31T11:42:14.932Z,102394.56
2023-05-31T11:44:45.408Z,102387.94
2023-05-31T11:47:19.573Z,102388.59
2023-05-31T11:49:46.426Z,102385.47
2023-05-31T11:52:17.766Z,102388.50
2023-05-31T11:54:46.759Z,102385.00
2023-05-31T11:57:14.086Z,102381.28
2023-05-31T11:59:41.355Z,102387.88
2023-05-31T12:02:09.396Z,102374.56
2023-05-31T12:04:41.619Z,102382.31
2023-05-31T12:07:11.518Z,102376.97
2023-05-31T12:09:38.756Z,102364.00
2023-05-31T12:12:09.090Z,102361.66
2023-05-31T12:14:36.317Z,102366.03
2023-05-31T12:17:05.152Z,102354.94
2023-05-31T12:19:37.035Z,102356.84
2023-05-31T12:22:06.370Z,102346.81
2023-05-31T12:24:32.910Z,102348.38
2023-05-31T12:26:59.938Z,102352.22
2023-05-31T12:29:31.616Z,102337.00
2023-05-31T12:32:07.018Z,102344.94
2023-05-31T12:34:36.481Z,102343.13
2023-05-31T12:37:08.004Z,102335.34
2023-05-31T12:39:35.085Z,102334.91
2023-05-31T12:42:02.386Z,102340.13
2023-05-31T12:44:31.187Z,102328.31
2023-05-31T12:47:01.922Z,102319.53
2023-05-31T12:49:31.461Z,102319.31
2023-05-31T12:52:05.060Z,102313.94
2023-05-31T12:54:35.291Z,102307.38
2023-05-31T12:57:04.953Z,102315.38
2023-05-31T12:59:32.652Z,102313.09
2023-05-31T13:02:00.387Z,102313.34
2023-05-31T13:04:27.537Z,102303.31
2023-05-31T13:06:54.675Z,102308.94
2023-05-31T13:09:21.543Z,102302.19
2023-05-31T13:11:49.982Z,102300.09
2023-05-31T13:14:19.216Z,102300.47
2023-05-31T13:16:48.641Z,102289.75
2023-05-31T13:19:15.131Z,102298.19
2023-05-31T13:21:41.546Z,102298.94
2023-05-31T13:24:11.248Z,102295.00
2023-05-31T13:26:37.701Z,102290.78
2023-05-31T13:29:05.689Z,102287.91
2023-05-31T13:31:32.646Z,102288.16
2023-05-31T13:33:59.232Z,102286.81
2023-05-31T13:36:25.676Z,102281.38
2023-05-31T13:38:54.510Z,102287.41
2023-05-31T13:41:24.027Z,102275.53
2023-05-31T13:43:51.212Z,102284.03
2023-05-31T13:46:19.033Z,102273.22
2023-05-31T13:48:45.658Z,102271.78
2023-05-31T13:51:16.830Z,102267.59
2023-05-31T13:53:43.469Z,102268.66
2023-05-31T13:56:11.872Z,102265.50
2023-05-31T13:58:38.979Z,102268.78
2023-05-31T14:01:08.283Z,102264.16
2023-05-31T14:03:35.795Z,102247.88
2023-05-31T14:06:02.302Z,102258.72
2023-05-31T14:08:28.760Z,102257.97
2023-05-31T14:10:55.435Z,102257.13
2023-05-31T14:13:22.642Z,102246.44
2023-05-31T14:15:49.579Z,102256.75
2023-05-31T14:18:15.981Z,102244.91
2023-05-31T14:20:42.535Z,102244.41
2023-05-31T14:23:09.026Z,102244.56
2023-05-31T14:25:35.547Z,102232.31
2023-05-31T14:28:01.975Z,102239.69
2023-05-31T14:30:28.630Z,102237.84
2023-05-31T14:32:55.127Z,102230.53
2023-05-31T14:35:22.159Z,102223.47
2023-05-31T14:37:53.001Z,102229.00
2023-05-31T14:40:34.183Z,102219.00
2023-05-31T14:43:00.658Z,102222.22
2023-05-31T14:45:27.075Z,102224.13
2023-05-31T14:47:53.548Z,102225.09
2023-05-31T14:50:20.131Z,102218.84
2023-05-31T14:52:46.695Z,102209.28
2023-05-31T14:55:13.150Z,102215.03
2023-05-31T14:57:39.646Z,102209.84
2023-05-31T15:00:06.835Z,102203.91
2023-05-31T15:02:33.378Z,102207.69
2023-05-31T15:04:59.936Z,102203.31
2023-05-31T15:07:26.366Z,102209.59
2023-05-31T15:09:52.843Z,102207.69
2023-05-31T15:12:19.293Z,102216.53
2023-05-31T15:14:45.762Z,102204.59
2023-05-31T15:17:12.526Z,102201.34
2023-05-31T15:19:39.692Z,102206.81
2023-05-31T15:22:06.391Z,102192.81
2023-05-31T15:24:32.945Z,102203.13
2023-05-31T15:26:59.504Z,102200.47
2023-05-31T15:29:26.182Z,102196.38
2023-05-31T15:31:58.059Z,102202.81
2023-05-31T15:34:27.023Z,102197.88
2023-05-31T15:36:54.097Z,102200.53
2023-05-31T15:39:21.534Z,102203.66
2023-05-31T15:41:48.086Z,102194.78
2023-05-31T15:44:14.599Z,102200.47
2023-05-31T15:46:43.541Z,102196.38
2023-05-31T15:49:10.251Z,102191.50
2023-05-31T15:51:37.401Z,102190.06
2023-05-31T15:54:05.502Z,102184.34
2023-05-31T15:56:32.161Z,102188.09
2023-05-31T15:58:58.695Z,102189.91
2023-05-31T16:01:25.143Z,102183.63
2023-05-31T16:03:52.623Z,102181.94
2023-05-31T16:06:19.321Z,102178.66
2023-05-31T16:08:45.725Z,102171.34
2023-05-31T16:11:12.421Z,102170.56
2023-05-31T16:13:38.914Z,102162.38
2023-05-31T16:16:05.614Z,102175.38
2023-05-31T16:18:32.179Z,102168.16
2023-05-31T16:21:02.140Z,102165.84
2023-05-31T16:23:28.827Z,102166.16
2023-05-31T16:25:55.364Z,102161.50
2023-05-31T16:28:23.497Z,102157.59
2023-05-31T16:30:49.958Z,102157.72
2023-05-31T16:33:16.546Z,102160.06
2023-05-31T16:35:42.975Z,102158.19
2023-05-31T16:38:09.466Z,102161.38
2023-05-31T16:40:36.049Z,102154.78
2023-05-31T16:43:03.068Z,102156.09
2023-05-31T16:45:29.731Z,102148.09
2023-05-31T16:47:56.306Z,102150.72
2023-05-31T16:50:22.741Z,102147.44
2023-05-31T16:52:52.746Z,102150.06
2023-05-31T16:55:22.738Z,102145.19
2023-05-31T16:57:49.261Z,102144.97
2023-05-31T17:00:16.194Z,102140.56
2023-05-31T17:02:42.848Z,102146.22
2023-05-31T17:05:09.541Z,102149.81
2023-05-31T17:07:36.079Z,102143.91
2023-05-31T17:10:02.551Z,102150.31
2023-05-31T17:12:29.120Z,102145.66
2023-05-31T17:14:55.686Z,102147.94
2023-05-31T17:17:22.183Z,102156.50
2023-05-31T17:19:48.607Z,102152.59
2023-05-31T17:22:15.096Z,102148.69
2023-05-31T17:24:41.521Z,102140.94
2023-05-31T17:27:08.096Z,102139.69
2023-05-31T17:29:34.545Z,102142.66
2023-05-31T17:32:01.603Z,102137.09
2023-05-31T17:34:28.231Z,102129.34
2023-05-31T17:36:54.704Z,102130.16
2023-05-31T17:39:21.203Z,102130.03
2023-05-31T17:41:47.708Z,102129.44
2023-05-31T17:44:14.943Z,102132.44
2023-05-31T17:46:41.606Z,102135.66
2023-05-31T17:49:08.200Z,102130.53
2023-05-31T17:51:34.993Z,102122.03
2023-05-31T17:54:01.541Z,102128.13
2023-05-31T17:56:27.951Z,102123.50
2023-05-31T17:58:54.376Z,102128.63
2023-05-31T18:01:21.016Z,102126.88
2023-05-31T18:03:47.555Z,102130.31
2023-05-31T18:06:13.936Z,102127.34
2023-05-31T18:08:40.491Z,102124.56
2023-05-31T18:11:06.916Z,102127.09
2023-05-31T18:13:34.097Z,102125.31
2023-05-31T18:16:00.663Z,102119.03
2023-05-31T18:18:27.665Z,102124.72
2023-05-31T18:20:54.170Z,102132.19
2023-05-31T18:23:20.655Z,102129.25
2023-05-31T18:25:47.215Z,102131.56
2023-05-31T18:28:13.637Z,102123.59
2023-05-31T18:30:40.230Z,102122.44
2023-05-31T18:33:06.886Z,102126.44
2023-05-31T18:35:33.396Z,102122.53
2023-05-31T18:37:59.862Z,102123.81
2023-05-31T18:40:27.721Z,102124.75
2023-05-31T18:42:54.323Z,102127.28
2023-05-31T18:45:20.910Z,102129.22
2023-05-31T18:47:47.578Z,102133.38
2023-05-31T18:50:14.075Z,102132.16
2023-05-31T18:52:40.663Z,102130.34
2023-05-31T18:55:07.436Z,102129.53
2023-05-31T18:57:33.864Z,102141.53
2023-05-31T19:00:00.562Z,102132.47
2023-05-31T19:02:27.040Z,102128.56
2023-05-31T19:04:53.570Z,102137.03
2023-05-31T19:07:20.075Z,102137.84
2023-05-31T19:09:46.613Z,102130.03
2023-05-31T19:12:26.628Z,102137.03
2023-05-31T19:14:57.452Z,102140.53
2023-05-31T19:17:23.860Z,102135.75
2023-05-31T19:19:50.359Z,102142.75
2023-05-31T19:22:16.860Z,102146.63
2023-05-31T19:24:43.290Z,102145.78
2023-05-31T19:27:09.722Z,102148.81
2023-05-31T19:29:36.274Z,102158.06
2023-05-31T19:32:03.375Z,102154.50
2023-05-31T19:34:29.792Z,102151.22
2023-05-31T19:36:56.433Z,102158.28
2023-05-31T19:39:22.925Z,102158.03
2023-05-31T19:41:51.009Z,102164.16
2023-05-31T19:44:17.583Z,102169.00
2023-05-31T19:46:44.093Z,102169.50
2023-05-31T19:49:10.631Z,102178.81
2023-05-31T19:51:37.631Z,102180.16
2023-05-31T19:54:04.103Z,102187.25
2023-05-31T19:56:30.538Z,102187.03
2023-05-31T19:58:57.125Z,102190.44
2023-05-31T20:01:23.993Z,102185.72
2023-05-31T20:03:51.491Z,102187.88
2023-05-31T20:06:18.147Z,102194.16
2023-05-31T20:08:44.566Z,102199.78
2023-05-31T20:11:12.548Z,102208.91
2023-05-31T20:13:39.204Z,102202.81
2023-05-31T20:16:05.759Z,102215.13
2023-05-31T20:18:32.232Z,102208.72
2023-05-31T20:20:58.641Z,102207.50
2023-05-31T20:23:25.004Z,102213.75
2023-05-31T20:25:51.429Z,102210.53
2023-05-31T20:28:17.880Z,102216.13
2023-05-31T20:30:44.292Z,102224.09
2023-05-31T20:33:10.766Z,102223.69
2023-05-31T20:35:37.253Z,102226.41
2023-05-31T20:38:03.721Z,102225.81
2023-05-31T20:40:30.146Z,102229.66
2023-05-31T20:42:56.720Z,102226.22
2023-05-31T20:45:23.684Z,102228.81
2023-05-31T20:47:50.466Z,102225.31
2023-05-31T20:50:17.079Z,102227.91
2023-05-31T20:52:43.665Z,102233.78
2023-05-31T20:55:10.705Z,102236.94
2023-05-31T20:57:37.805Z,102231.81
2023-05-31T21:00:05.298Z,102229.38
2023-05-31T21:02:31.848Z,102234.38
2023-05-31T21:05:00.015Z,102236.59
2023-05-31T21:07:27.136Z,102245.91
2023-05-31T21:09:54.138Z,102247.28
2023-05-31T21:12:20.672Z,102244.28
2023-05-31T21:14:47.158Z,102248.66
2023-05-31T21:17:13.845Z,102246.00
2023-05-31T21:19:40.304Z,102245.84
2023-05-31T21:22:06.927Z,102251.00
2023-05-31T21:24:33.420Z,102245.81
2023-05-31T21:26:59.866Z,102252.66
2023-05-31T21:29:26.254Z,102251.47
2023-05-31T21:31:52.896Z,102254.28
2023-05-31T21:34:21.483Z,102261.59
2023-05-31T21:36:47.887Z,102253.78
2023-05-31T21:39:14.295Z,102246.09
2023-05-31T21:41:40.987Z,102252.53
2023-05-31T21:44:07.406Z,102256.50
2023-05-31T21:46:33.834Z,102262.97
2023-05-31T21:49:00.364Z,102259.63
2023-05-31T21:51:26.839Z,102264.09
2023-05-31T21:53:53.279Z,102262.56
2023-05-31T21:56:19.919Z,102263.53
2023-05-31T21:58:46.346Z,102268.28
2023-05-31T22:01:12.867Z,102262.50
2023-05-31T22:03:39.669Z,102271.78
2023-05-31T22:06:06.296Z,102268.38
2023-05-31T22:08:32.731Z,102274.81
2023-05-31T22:10:59.357Z,102280.56
2023-05-31T22:13:27.805Z,102277.34
2023-05-31T22:15:54.246Z,102273.81
2023-05-31T22:18:21.454Z,102278.72
2023-05-31T22:20:54.108Z,102287.78
2023-05-31T22:23:23.120Z,102286.03
2023-05-31T22:25:54.549Z,102277.56
2023-05-31T22:28:22.319Z,102284.47
2023-05-31T22:30:49.292Z,102283.16
2023-05-31T22:33:15.960Z,102288.91
2023-05-31T22:35:42.511Z,102286.31
2023-05-31T22:38:08.954Z,102283.13
2023-05-31T22:40:37.455Z,102282.69
2023-05-31T22:43:03.899Z,102289.69
2023-05-31T22:45:30.448Z,102281.66
2023-05-31T22:47:58.539Z,102286.91
2023-05-31T22:50:25.549Z,102288.78
2023-05-31T22:52:52.371Z,102289.66
2023-05-31T22:55:18.813Z,102296.69
2023-05-31T22:57:45.437Z,102294.47
2023-05-31T23:00:12.596Z,102293.63
2023-05-31T23:02:42.986Z,102302.03
2023-05-31T23:05:11.028Z,102299.25
2023-05-31T23:07:42.474Z,102297.50
2023-05-31T23:10:11.542Z,102302.53
2023-05-31T23:12:38.440Z,102304.34
2023-05-31T23:15:06.610Z,102303.50
2023-05-31T23:17:38.190Z,102308.81
2023-05-31T23:20:07.914Z,102311.47
2023-05-31T23:22:34.470Z,102312.88
2023-05-31T23:25:01.084Z,102325.84
2023-05-31T23:27:27.505Z,102315.53
2023-05-31T23:29:54.013Z,102323.59
2023-05-31T23:32:20.788Z,102308.19
2023-05-31T23:34:47.227Z,102320.84
2023-05-31T23:37:13.644Z,102323.22
2023-05-31T23:39:40.072Z,102316.13
2023-05-31T23:42:07.038Z,102334.63
2023-05-31T23:44:33.527Z,102334.34
2023-05-31T23:46:59.947Z,102331.84
2023-05-31T23:49:26.785Z,102328.91
2023-05-31T23:51:53.205Z,102331.16
2023-05-31T23:54:19.612Z,102322.78
2023-05-31T23:56:46.226Z,102326.53
2023-05-31T23:59:12.663Z,102327.78
